createdAt,value
2017-12-25T00:00:17.450Z,99.99
2017-12-25T00:01:17.447Z,99.99
2017-12-25T00:02:17.486Z,99.99
2017-12-25T00:03:17.236Z,99.99
2017-12-25T00:04:17.529Z,99.99
2017-12-25T00:05:17.282Z,99.99
2017-12-25T00:07:17.568Z,99.99
2017-12-25T00:08:17.335Z,99.99
2017-12-25T00:09:17.365Z,99.99
2017-12-25T00:10:17.626Z,99.99
2017-12-25T00:11:17.404Z,99.99
2017-12-25T00:12:17.696Z,99.99
2017-12-25T00:13:17.682Z,99.99
2017-12-25T00:14:17.706Z,99.99
2017-12-25T00:15:32.396Z,99.99
2017-12-25T00:16:17.489Z,99.99
2017-12-25T00:17:17.515Z,99.99
2017-12-25T00:18:17.540Z,99.99
2017-12-25T00:19:17.808Z,99.99
2017-12-25T00:20:17.863Z,99.99
2017-12-25T00:21:17.864Z,99.99
2017-12-25T00:22:17.606Z,99.99
2017-12-25T00:23:17.888Z,99.99
2017-12-25T00:25:17.672Z,99.99
2017-12-25T00:26:17.949Z,99.99
2017-12-25T00:27:17.951Z,99.99
2017-12-25T00:28:17.979Z,99.99
2017-12-25T00:29:17.742Z,99.99
2017-12-25T00:30:32.697Z,99.99
2017-12-25T00:31:18.040Z,99.99
2017-12-25T00:32:17.801Z,99.99
2017-12-25T00:33:17.832Z,99.99
2017-12-25T00:34:17.854Z,99.99
2017-12-25T00:35:18.118Z,99.99
2017-12-25T00:36:18.134Z,99.99
2017-12-25T00:37:17.917Z,99.99
2017-12-25T00:38:18.165Z,99.99
2017-12-25T00:39:18.219Z,99.99
2017-12-25T00:40:18.217Z,99.99
2017-12-25T00:41:18.234Z,99.99
2017-12-25T00:42:18.013Z,99.99
2017-12-25T00:43:18.293Z,99.99
2017-12-25T00:44:18.048Z,99.99
2017-12-25T00:45:18.075Z,99.99
2017-12-25T00:46:18.345Z,99.99
2017-12-25T00:47:18.113Z,99.99
2017-12-25T00:48:18.371Z,99.99
2017-12-25T00:49:18.389Z,99.99
2017-12-25T00:50:18.407Z,99.99
2017-12-25T00:51:18.420Z,99.99
2017-12-25T00:52:18.194Z,99.99
2017-12-25T00:53:18.488Z,99.99
2017-12-25T00:54:18.232Z,99.99
2017-12-25T00:55:18.505Z,99.99
2017-12-25T00:56:18.545Z,99.99
2017-12-25T00:57:18.294Z,99.99
2017-12-25T00:58:18.584Z,99.99
2017-12-25T00:59:18.604Z,99.99
2017-12-25T01:00:18.616Z,99.99
2017-12-25T01:01:18.622Z,99.99
2017-12-25T01:02:33.319Z,99.99
2017-12-25T01:03:18.660Z,99.99
2017-12-25T01:04:18.424Z,99.99
2017-12-25T01:05:18.693Z,99.99
2017-12-25T01:06:18.719Z,99.99
2017-12-25T01:07:18.733Z,99.99
2017-12-25T01:09:18.771Z,99.99
2017-12-25T01:10:18.792Z,99.99
2017-12-25T01:11:18.812Z,99.99
2017-12-25T01:12:18.832Z,99.99
2017-12-25T01:13:18.880Z,99.99
2017-12-25T01:14:18.890Z,99.99
2017-12-25T01:15:18.640Z,99.99
2017-12-25T01:16:18.917Z,99.99
2017-12-25T01:17:18.684Z,99.99
2017-12-25T01:18:33.628Z,99.99
2017-12-25T01:19:18.965Z,99.99
2017-12-25T01:20:18.756Z,99.99
2017-12-25T01:21:19.004Z,99.99
2017-12-25T01:22:18.791Z,99.99
2017-12-25T01:24:19.061Z,99.99
2017-12-25T01:25:18.832Z,99.99
2017-12-25T01:26:19.104Z,99.99
2017-12-25T01:27:19.122Z,99.99
2017-12-25T01:28:19.176Z,99.99
2017-12-25T01:29:19.182Z,99.99
2017-12-25T01:30:19.200Z,99.99
2017-12-25T01:31:19.217Z,99.99
2017-12-25T01:32:18.970Z,99.99
2017-12-25T01:33:19.252Z,99.99
2017-12-25T01:34:33.938Z,99.99
2017-12-25T01:35:19.273Z,99.99
2017-12-25T01:36:19.322Z,99.99
2017-12-25T01:37:19.344Z,99.99
2017-12-25T01:38:19.334Z,99.99
2017-12-25T01:39:19.353Z,99.99
2017-12-25T01:40:19.369Z,99.99
2017-12-25T01:41:19.397Z,99.99
2017-12-25T01:42:19.412Z,99.99
2017-12-25T01:43:19.436Z,99.99
2017-12-25T01:44:19.207Z,99.99
2017-12-25T01:45:19.492Z,99.99
2017-12-25T01:46:19.488Z,99.99
2017-12-25T01:47:19.508Z,99.99
2017-12-25T01:48:19.523Z,99.99
2017-12-25T01:49:19.577Z,99.94
2017-12-25T01:50:34.249Z,99.99
2017-12-25T01:51:19.612Z,99.99
2017-12-25T01:52:19.606Z,99.99
2017-12-25T01:53:19.639Z,99.99
2017-12-25T01:54:19.658Z,99.99
2017-12-25T01:55:19.692Z,99.99
2017-12-25T01:56:19.687Z,99.84
2017-12-25T01:57:19.725Z,99.99
2017-12-25T01:59:19.737Z,99.84
2017-12-25T02:01:19.804Z,99.99
2017-12-25T02:03:19.949Z,99.99
2017-12-25T02:04:19.850Z,99.94
2017-12-25T02:05:34.547Z,99.55
2017-12-25T02:06:19.876Z,99.84
2017-12-25T02:07:19.912Z,99.55
2017-12-25T02:08:19.938Z,99.84
2017-12-25T02:09:19.938Z,99.37
2017-12-25T02:10:19.962Z,99.75
2017-12-25T02:11:20.000Z,99.18
2017-12-25T02:12:20.006Z,99.27
2017-12-25T02:14:20.040Z,99.18
2017-12-25T02:16:20.097Z,99.18
2017-12-25T02:17:20.105Z,99.84
2017-12-25T02:18:20.131Z,99.55
2017-12-25T02:19:20.135Z,98.99
2017-12-25T02:20:20.172Z,99.18
2017-12-25T02:21:20.191Z,99.27
2017-12-25T02:22:20.194Z,98.7
2017-12-25T02:23:20.223Z,98.41
2017-12-25T02:24:20.259Z,98.32
2017-12-25T02:25:20.250Z,98.51
2017-12-25T02:26:20.287Z,98.89
2017-12-25T02:27:20.041Z,98.51
2017-12-25T02:28:20.309Z,98.6
2017-12-25T02:29:20.325Z,98.6
2017-12-25T02:30:20.378Z,98.99
2017-12-25T02:31:20.395Z,98.79
2017-12-25T02:32:20.406Z,98.7
2017-12-25T02:33:20.437Z,98.51
2017-12-25T02:34:20.450Z,98.79
2017-12-25T02:35:20.441Z,98.51
2017-12-25T02:36:20.461Z,98.03
2017-12-25T02:37:35.155Z,98.13
2017-12-25T02:38:20.501Z,98.41
2017-12-25T02:39:20.517Z,98.03
2017-12-25T02:40:20.544Z,97.84
2017-12-25T02:41:20.557Z,98.13
2017-12-25T02:42:20.599Z,98.03
2017-12-25T02:43:20.597Z,98.13
2017-12-25T02:45:20.654Z,97.56
2017-12-25T02:46:20.654Z,97.84
2017-12-25T02:47:20.439Z,98.13
2017-12-25T02:48:20.690Z,97.75
2017-12-25T02:49:20.734Z,97.56
2017-12-25T02:50:20.763Z,97.56
2017-12-25T02:51:20.784Z,97.46
2017-12-25T02:52:20.771Z,97.46
2017-12-25T02:53:35.467Z,97.65
2017-12-25T02:54:20.806Z,97.65
2017-12-25T02:55:20.827Z,97.56
2017-12-25T02:56:20.852Z,97.65
2017-12-25T02:57:20.863Z,97.56
2017-12-25T02:58:20.883Z,97.65
2017-12-25T02:59:20.909Z,97.65
2017-12-25T03:00:20.926Z,97.75
2017-12-25T03:01:20.947Z,97.36
2017-12-25T03:02:20.980Z,97.94
2017-12-25T03:03:21.001Z,97.84
2017-12-25T03:04:21.011Z,97.56
2017-12-25T03:05:21.019Z,97.36
2017-12-25T03:06:21.065Z,97.56
2017-12-25T03:07:21.073Z,97.65
2017-12-25T03:08:21.094Z,97.84
2017-12-25T03:09:35.771Z,97.46
2017-12-25T03:10:21.120Z,97.17
2017-12-25T03:11:21.165Z,97.27
2017-12-25T03:12:21.150Z,97.36
2017-12-25T03:13:21.177Z,97.84
2017-12-25T03:14:21.188Z,97.75
2017-12-25T03:15:21.214Z,97.84
2017-12-25T03:16:21.249Z,97.17
2017-12-25T03:17:21.252Z,97.08
2017-12-25T03:19:21.285Z,97.17
2017-12-25T03:20:21.316Z,96.6
2017-12-25T03:21:21.353Z,96.6
2017-12-25T03:22:21.351Z,96.32
2017-12-25T03:23:21.387Z,96.22
2017-12-25T03:24:21.402Z,96.41
2017-12-25T03:25:36.079Z,96.6
2017-12-25T03:26:21.429Z,96.32
2017-12-25T03:27:21.465Z,96.22
2017-12-25T03:28:21.472Z,96.32
2017-12-25T03:29:21.480Z,96.51
2017-12-25T03:30:21.526Z,96.7
2017-12-25T03:31:21.529Z,96.32
2017-12-25T03:32:21.559Z,96.7
2017-12-25T03:33:21.555Z,96.8
2017-12-25T03:34:21.581Z,96.6
2017-12-25T03:35:21.622Z,96.6
2017-12-25T03:36:21.614Z,97.17
2017-12-25T03:37:21.643Z,96.98
2017-12-25T03:38:21.644Z,96.8
2017-12-25T03:39:21.670Z,97.27
2017-12-25T03:40:36.371Z,97.17
2017-12-25T03:41:21.709Z,96.7
2017-12-25T03:42:21.728Z,97.36
2017-12-25T03:43:21.762Z,96.51
2017-12-25T03:44:21.774Z,96.22
2017-12-25T03:46:21.809Z,96.6
2017-12-25T03:47:21.831Z,96.89
2017-12-25T03:48:21.842Z,96.7
2017-12-25T03:49:21.884Z,96.6
2017-12-25T03:50:21.887Z,96.8
2017-12-25T03:51:22.019Z,96.22
2017-12-25T03:52:21.921Z,96.7
2017-12-25T03:53:21.935Z,96.03
2017-12-25T03:54:21.957Z,96.41
2017-12-25T03:55:22.003Z,97.36
2017-12-25T03:56:21.996Z,96.7
2017-12-25T03:57:22.022Z,96.22
2017-12-25T03:58:22.042Z,96.22
2017-12-25T03:59:22.052Z,96.8
2017-12-25T04:00:22.078Z,96.41
2017-12-25T04:01:22.107Z,96.6
2017-12-25T04:02:22.132Z,96.51
2017-12-25T04:03:22.155Z,96.7
2017-12-25T04:05:22.186Z,96.22
2017-12-25T04:06:22.204Z,96.03
2017-12-25T04:07:22.215Z,95.36
2017-12-25T04:08:22.231Z,95.46
2017-12-25T04:09:22.289Z,95.27
2017-12-25T04:11:22.034Z,95.17
2017-12-25T04:12:36.983Z,95.36
2017-12-25T04:13:22.331Z,95.46
2017-12-25T04:14:22.362Z,95.17
2017-12-25T04:15:22.361Z,95.75
2017-12-25T04:16:22.394Z,94.7
2017-12-25T04:17:22.399Z,95.46
2017-12-25T04:18:22.431Z,95.17
2017-12-25T04:19:22.444Z,95.27
2017-12-25T04:20:22.489Z,94.79
2017-12-25T04:21:22.475Z,94.51
2017-12-25T04:22:22.515Z,94.03
2017-12-25T04:23:22.514Z,94.51
2017-12-25T04:24:22.561Z,94.22
2017-12-25T04:25:22.557Z,94.13
2017-12-25T04:26:22.571Z,94.13
2017-12-25T04:28:37.290Z,93.08
2017-12-25T04:29:22.627Z,93.08
2017-12-25T04:30:22.650Z,93.84
2017-12-25T04:31:22.668Z,93.65
2017-12-25T04:33:22.726Z,93.55
2017-12-25T04:35:22.744Z,92.41
2017-12-25T04:36:22.763Z,92.22
2017-12-25T04:37:22.775Z,91.99
2017-12-25T04:38:22.809Z,92.79
2017-12-25T04:39:22.839Z,93.08
2017-12-25T04:40:22.589Z,92.98
2017-12-25T04:41:22.880Z,92.6
2017-12-25T04:42:22.878Z,92.89
2017-12-25T04:43:22.918Z,93.37
2017-12-25T04:44:37.596Z,93.65
2017-12-25T04:45:22.963Z,94.03
2017-12-25T04:46:22.971Z,94.32
2017-12-25T04:47:22.975Z,93.84
2017-12-25T04:48:22.992Z,94.6
2017-12-25T04:49:23.033Z,94.51
2017-12-25T04:50:23.059Z,94.6
2017-12-25T04:51:23.058Z,94.98
2017-12-25T04:52:23.068Z,94.89
2017-12-25T04:53:23.102Z,95.41
2017-12-25T04:54:23.117Z,95.36
2017-12-25T04:55:23.134Z,95.41
2017-12-25T04:56:23.154Z,95.65
2017-12-25T04:57:23.176Z,95.41
2017-12-25T04:58:22.931Z,95.41
2017-12-25T04:59:23.217Z,96.17
2017-12-25T05:00:37.898Z,96.65
2017-12-25T05:01:23.242Z,96.36
2017-12-25T05:02:23.263Z,97.31
2017-12-25T05:03:23.033Z,97.7
2017-12-25T05:04:23.301Z,97.79
2017-12-25T05:05:23.068Z,97.89
2017-12-25T05:06:23.085Z,99.03
2017-12-25T05:07:23.357Z,98.84
2017-12-25T05:09:23.401Z,99.22
2017-12-25T05:10:23.432Z,98.55
2017-12-25T05:11:23.451Z,99.22
2017-12-25T05:12:23.215Z,99.03
2017-12-25T05:13:23.473Z,99.03
2017-12-25T05:14:23.490Z,99.13
2017-12-25T05:15:38.191Z,99.13
2017-12-25T05:16:23.550Z,99.32
2017-12-25T05:17:23.573Z,99.03
2017-12-25T05:18:23.583Z,99.03
2017-12-25T05:19:23.585Z,99.41
2017-12-25T05:20:23.621Z,99.98
2017-12-25T05:22:23.657Z,99.6
2017-12-25T05:23:23.677Z,99.89
2017-12-25T05:24:23.430Z,99.89
2017-12-25T05:25:23.453Z,99.98
2017-12-25T05:26:23.737Z,99.98
2017-12-25T05:27:23.763Z,99.79
2017-12-25T05:28:23.761Z,99.6
2017-12-25T05:30:23.825Z,99.69
2017-12-25T05:31:23.822Z,99.51
2017-12-25T05:32:23.837Z,99.89
2017-12-25T05:33:23.868Z,99.89
2017-12-25T05:34:23.891Z,99.69
2017-12-25T05:35:23.891Z,99.79
2017-12-25T05:36:23.945Z,99.6
2017-12-25T05:37:23.923Z,99.99
2017-12-25T05:38:23.948Z,99.51
2017-12-25T05:39:23.980Z,99.89
2017-12-25T05:40:23.990Z,99.98
2017-12-25T05:41:24.002Z,99.89
2017-12-25T05:42:23.780Z,99.69
2017-12-25T05:43:24.048Z,99.99
2017-12-25T05:44:23.810Z,99.99
2017-12-25T05:45:23.831Z,99.99
2017-12-25T05:46:24.097Z,99.99
2017-12-25T05:47:38.801Z,99.99
2017-12-25T05:48:24.150Z,99.99
2017-12-25T05:49:24.167Z,99.99
2017-12-25T05:50:24.177Z,99.99
2017-12-25T05:51:23.953Z,99.99
2017-12-25T05:52:23.965Z,99.99
2017-12-25T05:53:23.984Z,99.99
2017-12-25T05:54:24.284Z,99.99
2017-12-25T05:55:24.022Z,99.99
2017-12-25T05:56:24.293Z,99.99
2017-12-25T05:57:24.308Z,99.99
2017-12-25T05:58:24.332Z,99.99
2017-12-25T05:59:24.344Z,99.99
2017-12-25T06:00:24.385Z,99.99
2017-12-25T06:01:24.391Z,99.99
2017-12-25T06:02:24.436Z,99.99
2017-12-25T06:03:39.101Z,99.99
2017-12-25T06:04:24.193Z,99.99
2017-12-25T06:05:24.458Z,99.99
2017-12-25T06:06:24.479Z,99.99
2017-12-25T06:07:24.499Z,99.99
2017-12-25T06:08:24.535Z,99.99
2017-12-25T06:09:24.560Z,99.99
2017-12-25T06:11:24.602Z,99.99
2017-12-25T06:12:24.621Z,99.99
2017-12-25T06:13:24.616Z,99.99
2017-12-25T06:14:24.644Z,99.99
2017-12-25T06:15:24.677Z,99.99
2017-12-25T06:16:24.671Z,99.99
2017-12-25T06:17:24.695Z,99.99
2017-12-25T06:18:24.709Z,99.99
2017-12-25T06:19:39.415Z,99.99
2017-12-25T06:20:24.755Z,99.99
2017-12-25T06:21:24.791Z,99.99
2017-12-25T06:22:24.806Z,99.99
2017-12-25T06:23:24.816Z,99.99
2017-12-25T06:24:24.846Z,99.99
2017-12-25T06:25:24.852Z,99.99
2017-12-25T06:26:24.883Z,99.99
2017-12-25T06:27:24.882Z,99.99
2017-12-25T06:28:24.925Z,99.99
2017-12-25T06:29:24.949Z,99.99
2017-12-25T06:30:24.964Z,99.99
2017-12-25T06:31:24.962Z,99.99
2017-12-25T06:32:24.999Z,99.99
2017-12-25T06:33:25.042Z,99.99
2017-12-25T06:34:25.023Z,99.99
2017-12-25T06:35:39.717Z,99.99
2017-12-25T06:36:25.083Z,99.99
2017-12-25T06:37:25.092Z,99.99
2017-12-25T06:38:25.092Z,99.99
2017-12-25T06:39:25.138Z,99.99
2017-12-25T06:40:24.888Z,99.99
2017-12-25T06:41:25.153Z,99.99
2017-12-25T06:42:25.176Z,99.99
2017-12-25T06:43:25.211Z,99.99
2017-12-25T06:44:25.207Z,99.99
2017-12-25T06:45:25.232Z,99.99
2017-12-25T06:46:25.253Z,99.99
2017-12-25T06:47:25.021Z,99.99
2017-12-25T06:48:25.302Z,99.99
2017-12-25T06:49:25.318Z,99.99
2017-12-25T06:50:39.997Z,99.99
2017-12-25T06:51:25.090Z,99.99
2017-12-25T06:52:25.107Z,99.99
2017-12-25T06:53:25.379Z,99.99
2017-12-25T06:54:25.409Z,99.99
2017-12-25T06:55:25.416Z,99.99
2017-12-25T06:56:25.460Z,99.99
2017-12-25T06:57:25.458Z,99.99
2017-12-25T06:58:25.481Z,99.99
2017-12-25T06:59:25.497Z,99.99
2017-12-25T07:00:25.518Z,99.99
2017-12-25T07:01:25.532Z,99.99
2017-12-25T07:04:25.591Z,99.99
2017-12-25T07:05:25.619Z,99.99
2017-12-25T07:06:25.633Z,99.99
2017-12-25T07:07:25.407Z,99.99
2017-12-25T07:08:25.683Z,99.99
2017-12-25T07:09:25.705Z,99.99
2017-12-25T07:10:25.727Z,99.99
2017-12-25T07:11:25.720Z,99.99
2017-12-25T07:13:25.782Z,99.99
2017-12-25T07:14:25.781Z,99.99
2017-12-25T07:15:25.806Z,99.99
2017-12-25T07:16:25.827Z,99.99
2017-12-25T07:17:25.858Z,99.99
2017-12-25T07:18:25.891Z,99.99
2017-12-25T07:19:25.881Z,99.99
2017-12-25T07:20:25.896Z,99.99
2017-12-25T07:21:25.919Z,99.99
2017-12-25T07:22:40.607Z,99.99
2017-12-25T07:23:25.970Z,99.99
2017-12-25T07:24:25.973Z,99.99
2017-12-25T07:25:25.989Z,99.99
2017-12-25T07:26:26.009Z,99.99
2017-12-25T07:27:26.024Z,99.99
2017-12-25T07:28:26.068Z,99.99
2017-12-25T07:29:26.070Z,99.99
2017-12-25T07:31:26.100Z,99.99
2017-12-25T07:32:26.114Z,99.99
2017-12-25T07:33:26.139Z,99.99
2017-12-25T07:34:26.164Z,99.99
2017-12-25T07:35:26.202Z,99.99
2017-12-25T07:36:26.218Z,99.99
2017-12-25T07:38:40.920Z,99.99
2017-12-25T07:39:26.260Z,99.99
2017-12-25T07:40:26.295Z,99.99
2017-12-25T07:41:26.390Z,99.69
2017-12-25T07:42:26.318Z,99.51
2017-12-25T07:43:26.336Z,99.6
2017-12-25T07:45:26.366Z,99.99
2017-12-25T07:46:26.398Z,99.99
2017-12-25T07:47:26.433Z,99.99
2017-12-25T07:48:26.433Z,99.99
2017-12-25T07:49:26.457Z,99.79
2017-12-25T07:50:26.464Z,99.69
2017-12-25T07:51:26.500Z,99.79
2017-12-25T07:52:26.524Z,99.98
2017-12-25T07:53:26.282Z,99.89
2017-12-25T07:54:41.229Z,99.89
2017-12-25T07:55:26.557Z,99.99
2017-12-25T07:56:26.574Z,99.99
2017-12-25T07:58:26.631Z,99.99
2017-12-25T07:59:26.664Z,99.99
2017-12-25T08:00:26.652Z,99.99
2017-12-25T08:01:26.694Z,99.99
2017-12-25T08:02:26.718Z,99.99
2017-12-25T08:03:26.726Z,99.99
2017-12-25T08:04:26.753Z,99.99
2017-12-25T08:05:26.776Z,99.99
2017-12-25T08:06:26.770Z,99.99
2017-12-25T08:07:26.799Z,99.99
2017-12-25T08:08:26.801Z,99.99
2017-12-25T08:09:26.826Z,99.99
2017-12-25T08:10:41.525Z,99.99
2017-12-25T08:11:26.871Z,99.99
2017-12-25T08:12:26.905Z,99.99
2017-12-25T08:13:26.909Z,99.99
2017-12-25T08:14:26.940Z,99.99
2017-12-25T08:15:26.963Z,99.99
2017-12-25T08:17:27.008Z,99.99
2017-12-25T08:18:27.026Z,99.99
2017-12-25T08:19:27.011Z,99.99
2017-12-25T08:20:27.036Z,99.99
2017-12-25T08:21:27.066Z,99.99
2017-12-25T08:22:27.096Z,99.99
2017-12-25T08:23:27.116Z,99.99
2017-12-25T08:24:27.146Z,99.99
2017-12-25T08:25:41.820Z,99.99
2017-12-25T08:26:27.153Z,99.99
2017-12-25T08:27:27.187Z,99.99
2017-12-25T08:28:27.194Z,99.99
2017-12-25T08:29:27.231Z,99.99
2017-12-25T08:30:27.254Z,99.99
2017-12-25T08:31:27.266Z,99.99
2017-12-25T08:32:27.276Z,99.99
2017-12-25T08:33:27.287Z,99.99
2017-12-25T08:34:27.322Z,99.99
2017-12-25T08:35:27.351Z,99.99
2017-12-25T08:36:27.341Z,99.99
2017-12-25T08:37:27.130Z,99.99
2017-12-25T08:38:27.388Z,99.99
2017-12-25T08:39:27.458Z,99.99
2017-12-25T08:40:27.446Z,99.89
2017-12-25T08:41:27.457Z,99.6
2017-12-25T08:42:27.477Z,99.99
2017-12-25T08:43:27.482Z,99.99
2017-12-25T08:44:27.496Z,99.79
2017-12-25T08:45:27.535Z,99.6
2017-12-25T08:46:27.535Z,99.03
2017-12-25T08:47:27.577Z,97.99
2017-12-25T08:48:27.582Z,97.79
2017-12-25T08:49:27.595Z,97.51
2017-12-25T08:50:27.613Z,97.79
2017-12-25T08:51:27.638Z,96.94
2017-12-25T08:52:27.654Z,97.22
2017-12-25T08:53:27.668Z,97.03
2017-12-25T08:54:27.717Z,97.13
2017-12-25T08:55:27.701Z,97.13
2017-12-25T08:56:27.736Z,96.27
2017-12-25T08:57:42.426Z,96.55
2017-12-25T08:58:27.766Z,95.98
2017-12-25T09:00:27.828Z,96.17
2017-12-25T09:01:27.824Z,95.75
2017-12-25T09:02:27.846Z,95.94
2017-12-25T09:03:27.884Z,95.79
2017-12-25T09:04:27.641Z,95.22
2017-12-25T09:05:27.901Z,95.56
2017-12-25T09:06:27.940Z,95.41
2017-12-25T09:07:27.943Z,94.89
2017-12-25T09:08:27.963Z,95.22
2017-12-25T09:09:27.995Z,94.89
2017-12-25T09:11:28.023Z,94.46
2017-12-25T09:12:28.055Z,94.65
2017-12-25T09:13:42.731Z,94.56
2017-12-25T09:14:28.087Z,94.22
2017-12-25T09:15:28.085Z,94.41
2017-12-25T09:16:28.135Z,94.22
2017-12-25T09:17:28.148Z,93.55
2017-12-25T09:18:28.147Z,93.65
2017-12-25T09:19:28.177Z,93.55
2017-12-25T09:20:28.207Z,93.74
2017-12-25T09:21:28.242Z,93.84
2017-12-25T09:22:28.228Z,93.55
2017-12-25T09:23:28.247Z,93.46
2017-12-25T09:24:28.284Z,92.89
2017-12-25T09:25:28.284Z,93.17
2017-12-25T09:26:28.306Z,92.5
2017-12-25T09:27:28.325Z,92.98
2017-12-25T09:28:28.096Z,92.41
2017-12-25T09:29:43.039Z,91.94
2017-12-25T09:30:28.401Z,92.41
2017-12-25T09:31:28.424Z,92.79
2017-12-25T09:32:28.419Z,92.69
2017-12-25T09:33:28.448Z,92.6
2017-12-25T09:34:28.205Z,91.84
2017-12-25T09:35:28.490Z,91.74
2017-12-25T09:37:28.524Z,91.84
2017-12-25T09:38:28.553Z,92.32
2017-12-25T09:39:28.560Z,91.74
2017-12-25T09:40:28.597Z,91.65
2017-12-25T09:41:28.588Z,92.41
2017-12-25T09:42:28.616Z,91.74
2017-12-25T09:43:28.695Z,91.27
2017-12-25T09:44:28.653Z,90.5
2017-12-25T09:45:43.342Z,91.17
2017-12-25T09:46:28.690Z,91.84
2017-12-25T09:47:28.703Z,91.17
2017-12-25T09:48:28.732Z,90.98
2017-12-25T09:49:28.753Z,91.27
2017-12-25T09:51:28.817Z,91.08
2017-12-25T09:52:28.795Z,90.6
2017-12-25T09:53:28.846Z,90.22
2017-12-25T09:54:28.846Z,90.5
2017-12-25T09:56:28.907Z,90.31
2017-12-25T09:57:28.898Z,90.41
2017-12-25T09:58:28.667Z,91.74
2017-12-25T09:59:28.943Z,92.03
2017-12-25T10:00:43.633Z,92.89
2017-12-25T10:01:28.744Z,92.89
2017-12-25T10:02:29.015Z,93.17
2017-12-25T10:03:29.020Z,92.5
2017-12-25T10:05:29.081Z,94.13
2017-12-25T10:06:29.070Z,94.7
2017-12-25T10:08:28.872Z,95.65
2017-12-25T10:09:29.129Z,96.12
2017-12-25T10:10:28.911Z,96.32
2017-12-25T10:11:29.169Z,96.32
2017-12-25T10:12:29.197Z,96.6
2017-12-25T10:14:29.231Z,96.98
2017-12-25T10:15:29.255Z,96.51
2017-12-25T10:16:29.277Z,96.6
2017-12-25T10:17:29.287Z,97.13
2017-12-25T10:18:29.313Z,96.8
2017-12-25T10:19:29.068Z,97.22
2017-12-25T10:20:29.353Z,96.98
2017-12-25T10:21:29.391Z,96.98
2017-12-25T10:22:29.410Z,97.08
2017-12-25T10:24:29.446Z,97.36
2017-12-25T10:25:29.467Z,96.98
2017-12-25T10:26:29.473Z,97.08
2017-12-25T10:27:29.485Z,96.51
2017-12-25T10:28:29.500Z,96.7
2017-12-25T10:29:29.541Z,97.17
2017-12-25T10:30:29.557Z,96.89
2017-12-25T10:31:29.576Z,97.17
2017-12-25T10:32:44.259Z,96.8
2017-12-25T10:33:29.594Z,97.13
2017-12-25T10:34:29.617Z,96.41
2017-12-25T10:35:29.652Z,97.17
2017-12-25T10:36:29.648Z,96.41
2017-12-25T10:37:29.680Z,96.89
2017-12-25T10:39:29.730Z,96.51
2017-12-25T10:40:29.749Z,96.41
2017-12-25T10:41:29.752Z,96.41
2017-12-25T10:42:29.841Z,96.17
2017-12-25T10:43:29.790Z,97.13
2017-12-25T10:44:29.818Z,96.22
2017-12-25T10:45:29.831Z,96.51
2017-12-25T10:46:29.851Z,96.27
2017-12-25T10:47:29.871Z,96.6
2017-12-25T10:48:44.563Z,95.94
2017-12-25T10:49:29.912Z,95.94
2017-12-25T10:50:29.936Z,96.41
2017-12-25T10:51:29.701Z,95.84
2017-12-25T10:52:29.988Z,96.03
2017-12-25T10:53:29.983Z,96.12
2017-12-25T10:54:30.049Z,95.65
2017-12-25T10:56:30.054Z,95.75
2017-12-25T10:57:30.083Z,95.84
2017-12-25T10:58:30.108Z,96.12
2017-12-25T11:00:30.124Z,96.03
2017-12-25T11:01:30.145Z,96.12
2017-12-25T11:02:30.186Z,96.41
2017-12-25T11:03:29.931Z,96.12
2017-12-25T11:04:44.877Z,96.03
2017-12-25T11:05:30.216Z,96.41
2017-12-25T11:06:30.242Z,96.41
2017-12-25T11:07:30.264Z,96.7
2017-12-25T11:08:30.031Z,96.22
2017-12-25T11:09:30.323Z,96.6
2017-12-25T11:10:30.314Z,96.7
2017-12-25T11:11:30.354Z,97.17
2017-12-25T11:12:30.351Z,96.51
2017-12-25T11:14:30.396Z,96.55
2017-12-25T11:16:30.437Z,96.46
2017-12-25T11:17:30.476Z,97.03
2017-12-25T11:18:30.242Z,96.17
2017-12-25T11:19:30.490Z,96.94
2017-12-25T11:20:45.194Z,96.84
2017-12-25T11:21:30.559Z,96.65
2017-12-25T11:22:30.565Z,96.22
2017-12-25T11:23:30.569Z,96.17
2017-12-25T11:24:30.586Z,96.7
2017-12-25T11:25:30.608Z,96.32
2017-12-25T11:26:30.643Z,96.84
2017-12-25T11:27:30.640Z,96.7
2017-12-25T11:28:30.695Z,96.6
2017-12-25T11:29:30.679Z,96.12
2017-12-25T11:30:30.701Z,96.6
2017-12-25T11:31:30.732Z,96.7
2017-12-25T11:32:30.757Z,96.6
2017-12-25T11:33:30.754Z,96.22
2017-12-25T11:34:30.784Z,97.08
2017-12-25T11:35:45.474Z,96.32
2017-12-25T11:36:30.833Z,96.41
2017-12-25T11:37:30.864Z,96.41
2017-12-25T11:38:30.862Z,96.6
2017-12-25T11:39:30.885Z,96.8
2017-12-25T11:40:30.904Z,96.7
2017-12-25T11:41:30.945Z,96.8
2017-12-25T11:42:30.948Z,96.51
2017-12-25T11:43:30.961Z,96.41
2017-12-25T11:44:31.004Z,96.6
2017-12-25T11:45:30.987Z,96.98
2017-12-25T11:46:31.016Z,97.6
2017-12-25T11:47:31.090Z,96.51
2017-12-25T11:48:31.049Z,96.7
2017-12-25T11:49:31.069Z,96.51
2017-12-25T11:50:31.109Z,97.27
2017-12-25T11:51:31.132Z,96.55
2017-12-25T11:52:31.132Z,96.41
2017-12-25T11:53:31.148Z,96.03
2017-12-25T11:54:30.920Z,96.17
2017-12-25T11:55:31.193Z,96.65
2017-12-25T11:56:31.293Z,96.55
2017-12-25T11:57:31.234Z,96.6
2017-12-25T11:58:31.249Z,96.46
2017-12-25T11:59:31.285Z,96.51
2017-12-25T12:00:31.290Z,96.6
2017-12-25T12:01:31.335Z,96.41
2017-12-25T12:02:31.333Z,96.7
2017-12-25T12:03:31.348Z,96.41
2017-12-25T12:04:31.365Z,96.03
2017-12-25T12:05:31.389Z,95.98
2017-12-25T12:07:46.100Z,95.79
2017-12-25T12:08:31.462Z,96.6
2017-12-25T12:09:31.459Z,96.32
2017-12-25T12:10:31.479Z,95.75
2017-12-25T12:11:31.529Z,95.6
2017-12-25T12:12:31.528Z,95.75
2017-12-25T12:13:31.640Z,95.56
2017-12-25T12:14:31.598Z,95.36
2017-12-25T12:15:31.641Z,95.75
2017-12-25T12:17:31.625Z,94.84
2017-12-25T12:18:31.632Z,94.93
2017-12-25T12:19:31.684Z,94.17
2017-12-25T12:20:31.674Z,93.98
2017-12-25T12:21:31.685Z,94.08
2017-12-25T12:22:31.724Z,94.27
2017-12-25T12:23:46.414Z,93.03
2017-12-25T12:24:31.755Z,92.74
2017-12-25T12:25:31.770Z,92.74
2017-12-25T12:26:31.815Z,92.08
2017-12-25T12:27:31.808Z,91.22
2017-12-25T12:28:31.848Z,91.31
2017-12-25T12:29:31.850Z,91.13
2017-12-25T12:31:31.882Z,91.31
2017-12-25T12:33:31.924Z,91.41
2017-12-25T12:34:31.692Z,90.65
2017-12-25T12:35:31.985Z,90.75
2017-12-25T12:36:31.978Z,90.36
2017-12-25T12:37:32.003Z,90.46
2017-12-25T12:38:32.034Z,89.79
2017-12-25T12:39:46.726Z,90.56
2017-12-25T12:40:32.077Z,90.46
2017-12-25T12:41:32.074Z,89.89
2017-12-25T12:42:32.108Z,89.41
2017-12-25T12:43:32.140Z,89.98
2017-12-25T12:45:32.182Z,89.79
2017-12-25T12:47:32.213Z,89.98
2017-12-25T12:48:32.212Z,90.27
2017-12-25T12:49:32.236Z,90.03
2017-12-25T12:50:32.002Z,89.89
2017-12-25T12:51:32.273Z,89.55
2017-12-25T12:52:32.411Z,90.56
2017-12-25T12:53:32.069Z,90.75
2017-12-25T12:54:32.346Z,91.27
2017-12-25T12:55:47.028Z,91.84
2017-12-25T12:56:32.373Z,92.22
2017-12-25T12:57:32.396Z,92.94
2017-12-25T12:58:32.431Z,93.7
2017-12-25T12:59:32.428Z,94.08
2017-12-25T13:00:32.446Z,94.27
2017-12-25T13:01:32.459Z,93.79
2017-12-25T13:02:32.502Z,94.08
2017-12-25T13:03:32.525Z,94.93
2017-12-25T13:04:32.546Z,94.74
2017-12-25T13:05:32.547Z,95.22
2017-12-25T13:06:32.587Z,94.93
2017-12-25T13:07:32.604Z,94.74
2017-12-25T13:08:32.606Z,94.84
2017-12-25T13:09:32.634Z,95.51
2017-12-25T13:10:47.319Z,96.08
2017-12-25T13:11:32.678Z,95.7
2017-12-25T13:12:32.680Z,95.32
2017-12-25T13:13:32.701Z,95.6
2017-12-25T13:14:32.474Z,95.7
2017-12-25T13:15:32.750Z,95.51
2017-12-25T13:16:32.756Z,94.93
2017-12-25T13:17:32.793Z,94.93
2017-12-25T13:18:32.537Z,95.51
2017-12-25T13:19:32.838Z,95.6
2017-12-25T13:20:32.835Z,95.51
2017-12-25T13:21:32.597Z,95.98
2017-12-25T13:22:32.627Z,96.17
2017-12-25T13:23:32.887Z,95.98
2017-12-25T13:24:32.657Z,95.98
2017-12-25T13:25:32.928Z,96.17
2017-12-25T13:26:32.954Z,95.98
2017-12-25T13:27:32.712Z,95.89
2017-12-25T13:28:32.992Z,96.36
2017-12-25T13:29:33.016Z,96.36
2017-12-25T13:30:33.043Z,96.08
2017-12-25T13:31:33.039Z,96.55
2017-12-25T13:32:32.816Z,96.36
2017-12-25T13:33:33.104Z,96.46
2017-12-25T13:34:33.117Z,96.36
2017-12-25T13:35:33.125Z,96.27
2017-12-25T13:36:33.165Z,95.79
2017-12-25T13:37:33.016Z,96.08
2017-12-25T13:38:33.181Z,95.98
2017-12-25T13:39:33.204Z,96.17
2017-12-25T13:40:33.214Z,96.46
2017-12-25T13:41:33.257Z,95.89
2017-12-25T13:42:47.926Z,96.17
2017-12-25T13:43:33.030Z,96.27
2017-12-25T13:44:33.316Z,95.89